TW-0011 weather

Hsinchu Air Force Hospital Heliport
Hsinchu, Hsinchu (city), Taiwan

Public forecast

Using degrees Celsius for public forecast. Weather courtesy of forecast.io.

METAR (pilot weather report)

Closest report is Taiwan Taoyuan International Airport, 21.5 nm (39.9 km) NE. Retrieved 2019/07/21 23:30 UTC (0 seconds ago):

RCTP 212330Z 16004KT 130V190 9999 FEW015 BKN100 29/24 Q1008 NOSIG RMK A2977

TAF (pilot weather forecast)

Forecast is more than 12 hours old.

Closest forecast is Hsinchu Air Base, 1.3 nm (2.3 km) W. Retrieved 2015/08/01 06:46 UTC (4 years ago):

TAF RCPO 010500Z 0106/0206 27010KT 9999 FEW020 TX33/0106Z TN27/0120Z BECMG 0111/0114 21004KT TEMPO 0118/0123 FEW020 BKN120 BECMG 0202/0205 33010KT